Terminal Aerodrome Forecast
Issued by NWS Glasgow, MT

Home | Current Version | Previous Version | Text Only | Print | Product List | Glossary On
Versions: 1 2 3 4 5 6 7 8 9 10 11 12 13 14
488
FTUS45 KGGW 232323
TAFGGW
TAF
KGGW 232323Z 2400/2424 32018G27KT P6SM FEW090
     FM240300 34010KT P6SM FEW090
     FM241700 32011KT P6SM FEW090=

USA.gov is the U.S. government's official web portal to all federal, state and local government web resources and services.